createdAt,value
2018-04-15T00:00:01.610Z,14.50
2018-04-15T00:02:29.204Z,14.83
2018-04-15T00:07:50.453Z,14.87
2018-04-15T00:10:18.087Z,12.80
2018-04-15T00:12:45.687Z,13.33
2018-04-15T00:15:13.303Z,13.97
2018-04-15T00:17:40.912Z,12.33
2018-04-15T00:20:08.508Z,13.53
2018-04-15T00:22:36.142Z,15.70
2018-04-15T00:25:03.758Z,12.77
2018-04-15T00:27:31.383Z,13.50
2018-04-15T00:29:58.977Z,13.73
2018-04-15T00:32:26.626Z,13.50
2018-04-15T00:34:54.228Z,14.07
2018-04-15T00:37:22.583Z,14.07
2018-04-15T00:39:50.194Z,13.63
2018-04-15T00:42:17.868Z,13.37
2018-04-15T00:44:45.483Z,13.10
2018-04-15T00:47:13.104Z,12.87
2018-04-15T00:49:40.697Z,13.60
2018-04-15T00:52:09.133Z,13.90
2018-04-15T00:54:36.748Z,14.10
2018-04-15T00:57:05.164Z,14.10
2018-04-15T00:59:32.759Z,13.20
2018-04-15T01:02:00.392Z,13.67
2018-04-15T01:04:28.027Z,14.83
2018-04-15T01:06:55.639Z,13.17
2018-04-15T01:09:23.256Z,14.73
2018-04-15T01:11:50.852Z,13.67
2018-04-15T01:14:18.497Z,15.03
2018-04-15T01:16:46.332Z,13.60
2018-04-15T01:22:06.547Z,14.27
2018-04-15T01:24:34.159Z,13.80
2018-04-15T01:27:01.761Z,13.77
2018-04-15T01:29:29.400Z,12.83
2018-04-15T01:31:57.795Z,14.67
2018-04-15T01:34:25.403Z,14.00
2018-04-15T01:36:53.017Z,14.30
2018-04-15T01:39:20.607Z,13.10
2018-04-15T01:41:48.227Z,13.77
2018-04-15T01:44:15.843Z,13.60
2018-04-15T01:46:43.429Z,11.60
2018-04-15T01:49:11.822Z,12.33
2018-04-15T01:51:40.185Z,12.33
2018-04-15T01:54:08.591Z,13.13
2018-04-15T01:56:36.193Z,12.30
2018-04-15T01:59:03.787Z,14.37
2018-04-15T02:01:32.180Z,12.87
2018-04-15T02:04:00.559Z,13.07
2018-04-15T02:06:28.940Z,12.60
2018-04-15T02:08:57.300Z,11.73
2018-04-15T02:11:24.926Z,12.20
2018-04-15T02:13:52.514Z,12.03
2018-04-15T02:16:20.137Z,11.90
2018-04-15T02:18:47.749Z,11.83
2018-04-15T02:21:15.427Z,11.83
2018-04-15T02:23:43.045Z,11.70
2018-04-15T02:26:10.682Z,11.53
2018-04-15T02:28:38.269Z,11.83
2018-04-15T02:31:05.867Z,11.50
2018-04-15T02:33:33.501Z,12.30
2018-04-15T02:36:01.148Z,10.97
2018-04-15T02:38:28.771Z,12.70
2018-04-15T02:40:56.391Z,14.43
2018-04-15T02:43:24.795Z,12.20
2018-04-15T02:45:52.388Z,11.77
2018-04-15T02:48:19.979Z,12.40
2018-04-15T02:50:47.617Z,11.57
2018-04-15T02:53:15.207Z,12.70
2018-04-15T02:55:42.809Z,12.03
2018-04-15T02:58:10.448Z,10.70
2018-04-15T03:00:38.832Z,12.30
2018-04-15T03:03:06.453Z,12.40
2018-04-15T03:05:34.072Z,12.00
2018-04-15T03:08:01.663Z,13.23
2018-04-15T03:10:29.272Z,13.80
2018-04-15T03:12:56.893Z,13.20
2018-04-15T03:15:24.501Z,12.70
2018-04-15T03:17:52.091Z,13.17
2018-04-15T03:20:19.699Z,13.17
2018-04-15T03:22:48.060Z,14.37
2018-04-15T03:25:15.658Z,13.30
2018-04-15T03:27:43.291Z,12.47
2018-04-15T03:30:10.895Z,12.80
2018-04-15T03:32:38.514Z,11.73
2018-04-15T03:35:06.137Z,13.43
2018-04-15T03:37:33.733Z,13.37
2018-04-15T03:40:01.338Z,12.93
2018-04-15T03:42:28.960Z,12.83
2018-04-15T03:44:57.325Z,12.20
2018-04-15T03:47:24.924Z,12.80
2018-04-15T03:49:52.551Z,13.63
2018-04-15T03:52:20.140Z,14.53
2018-04-15T03:54:47.751Z,11.83
2018-04-15T03:57:15.384Z,12.70
2018-04-15T03:59:42.985Z,12.67
2018-04-15T04:02:10.590Z,13.87
2018-04-15T04:04:38.231Z,14.00
2018-04-15T04:07:06.588Z,12.80
2018-04-15T04:09:34.196Z,13.60
2018-04-15T04:12:01.817Z,14.60
2018-04-15T04:14:30.180Z,14.73
2018-04-15T04:16:57.773Z,15.97
2018-04-15T04:22:42.732Z,15.73
2018-04-15T04:25:33.187Z,14.80
2018-04-15T04:28:00.800Z,14.33
2018-04-15T04:30:28.391Z,14.43
2018-04-15T04:32:56.767Z,14.23
2018-04-15T04:35:25.115Z,15.30
2018-04-15T04:37:52.703Z,14.40
2018-04-15T04:40:21.088Z,14.40
2018-04-15T04:42:49.447Z,14.43
2018-04-15T04:45:17.041Z,15.07
2018-04-15T04:47:44.661Z,14.60
2018-04-15T04:50:12.251Z,14.47
2018-04-15T04:52:40.615Z,14.73
2018-04-15T04:55:09.012Z,14.80
2018-04-15T04:57:37.359Z,13.87
2018-04-15T05:00:04.951Z,14.30
2018-04-15T05:02:32.590Z,13.00
2018-04-15T05:05:00.179Z,13.50
2018-04-15T05:07:27.780Z,14.73
2018-04-15T05:09:55.399Z,12.70
2018-04-15T05:12:23.016Z,13.53
2018-04-15T05:14:50.607Z,14.97
2018-04-15T05:17:19.017Z,14.20
2018-04-15T05:19:46.620Z,13.53
2018-04-15T05:22:14.212Z,14.87
2018-04-15T05:24:42.607Z,15.50
2018-04-15T05:27:10.205Z,12.83
2018-04-15T05:29:37.792Z,14.43
2018-04-15T05:32:05.448Z,13.30
2018-04-15T05:34:33.032Z,13.40
2018-04-15T05:37:01.408Z,13.40
2018-04-15T05:39:29.778Z,14.43
2018-04-15T05:41:57.359Z,14.00
2018-04-15T05:44:25.721Z,12.20
2018-04-15T05:46:54.166Z,12.10
2018-04-15T05:49:21.750Z,12.80
2018-04-15T05:51:49.335Z,12.43
2018-04-15T05:54:16.973Z,11.70
2018-04-15T05:56:44.559Z,13.17
2018-04-15T05:59:12.915Z,12.47
2018-04-15T06:01:41.313Z,11.13
2018-04-15T06:04:09.670Z,11.17
2018-04-15T06:06:37.256Z,10.90
2018-04-15T06:09:06.572Z,12.90
2018-04-15T06:11:34.156Z,11.93
2018-04-15T06:14:01.747Z,11.43
2018-04-15T06:16:29.359Z,10.77
2018-04-15T06:18:56.941Z,10.50
2018-04-15T06:21:24.547Z,11.10
2018-04-15T06:23:52.928Z,11.10
2018-04-15T06:26:21.284Z,13.27
2018-04-15T06:28:48.863Z,12.03
2018-04-15T06:31:17.238Z,10.83
2018-04-15T06:33:45.590Z,9.70
2018-04-15T06:36:13.197Z,9.93
2018-04-15T06:38:42.003Z,10.13
2018-04-15T06:41:09.601Z,9.77
2018-04-15T06:43:37.215Z,10.03
2018-04-15T06:46:04.836Z,10.20
2018-04-15T06:48:32.416Z,8.63
2018-04-15T06:51:00.779Z,9.37
2018-04-15T06:53:28.397Z,8.30
2018-04-15T06:55:55.977Z,8.80
2018-04-15T06:58:23.565Z,9.43
2018-04-15T07:00:51.179Z,8.90
2018-04-15T07:03:18.763Z,8.70
2018-04-15T07:05:46.352Z,8.93
2018-04-15T07:08:13.979Z,9.87
2018-04-15T07:10:41.571Z,10.70
2018-04-15T07:13:09.160Z,9.90
2018-04-15T07:15:36.800Z,10.73
2018-04-15T07:18:05.152Z,9.87
2018-04-15T07:20:32.780Z,10.77
2018-04-15T07:23:00.406Z,10.27
2018-04-15T07:25:28.760Z,10.43
2018-04-15T07:27:56.367Z,10.90
2018-04-15T07:30:24.011Z,9.67
2018-04-15T07:32:51.639Z,9.40
2018-04-15T07:35:19.248Z,10.00
2018-04-15T07:37:46.863Z,9.43
2018-04-15T07:40:14.520Z,9.17
2018-04-15T07:42:42.100Z,8.80
2018-04-15T07:45:09.728Z,10.30
2018-04-15T07:47:37.327Z,8.83
2018-04-15T07:50:05.684Z,9.13
2018-04-15T07:52:33.301Z,8.83
2018-04-15T07:55:00.891Z,9.53
2018-04-15T07:57:28.500Z,9.80
2018-04-15T07:59:56.870Z,9.83
2018-04-15T08:02:25.293Z,9.80
2018-04-15T08:04:53.605Z,9.53
2018-04-15T08:07:21.219Z,9.13
2018-04-15T08:09:48.831Z,8.17
2018-04-15T08:12:16.418Z,9.40
2018-04-15T08:14:44.835Z,9.13
2018-04-15T08:17:12.439Z,8.13
2018-04-15T08:19:40.810Z,8.70
2018-04-15T08:22:08.422Z,9.93
2018-04-15T08:24:36.012Z,8.70
2018-04-15T08:27:03.603Z,8.63
2018-04-15T08:29:31.245Z,8.90
2018-04-15T08:31:58.828Z,10.27
2018-04-15T08:34:26.418Z,9.10
2018-04-15T08:36:54.107Z,9.53
2018-04-15T08:39:21.691Z,8.80
2018-04-15T08:41:49.289Z,8.77
2018-04-15T08:44:17.663Z,9.17
2018-04-15T08:46:46.047Z,8.40
2018-04-15T08:49:14.398Z,9.47
2018-04-15T08:51:42.041Z,9.50
2018-04-15T08:54:09.652Z,8.97
2018-04-15T08:56:38.001Z,9.57
2018-04-15T08:59:05.615Z,9.03
2018-04-15T09:01:33.212Z,8.83
2018-04-15T09:04:00.804Z,9.97
2018-04-15T09:06:30.221Z,9.73
2018-04-15T09:08:57.813Z,8.20
2018-04-15T09:11:25.404Z,9.53
2018-04-15T09:13:53.020Z,10.60
2018-04-15T09:16:20.604Z,9.77
2018-04-15T09:18:48.185Z,9.57
2018-04-15T09:21:15.809Z,10.57
2018-04-15T09:23:43.397Z,9.80
2018-04-15T09:26:11.747Z,9.23
2018-04-15T09:28:39.371Z,10.53
2018-04-15T09:31:12.670Z,9.47
2018-04-15T09:33:41.050Z,9.87
2018-04-15T09:36:09.420Z,10.40
2018-04-15T09:38:37.772Z,10.80
2018-04-15T09:41:05.393Z,10.23
2018-04-15T09:43:32.986Z,10.00
2018-04-15T09:46:00.600Z,10.87
2018-04-15T09:48:28.211Z,10.87
2018-04-15T09:50:55.849Z,10.33
2018-04-15T09:53:23.433Z,10.60
2018-04-15T09:55:51.809Z,10.10
2018-04-15T09:58:19.388Z,9.87
2018-04-15T10:00:47.789Z,9.90
2018-04-15T10:03:15.443Z,10.13
2018-04-15T10:05:43.793Z,10.17
2018-04-15T10:08:15.451Z,9.87
2018-04-15T10:10:43.040Z,11.87
2018-04-15T10:13:11.400Z,12.07
2018-04-15T10:15:42.647Z,10.70
2018-04-15T10:18:10.248Z,12.13
2018-04-15T10:20:37.851Z,10.53
2018-04-15T10:23:19.616Z,10.90
2018-04-15T10:25:47.202Z,11.90
2018-04-15T10:28:14.850Z,10.93
2018-04-15T10:30:43.498Z,12.03
2018-04-15T10:33:11.852Z,11.00
2018-04-15T10:35:39.448Z,10.93
2018-04-15T10:38:07.060Z,11.40
2018-04-15T10:40:34.655Z,12.23
2018-04-15T10:43:03.009Z,11.90
2018-04-15T10:45:30.635Z,12.93
2018-04-15T10:47:58.224Z,12.10
2018-04-15T10:50:25.816Z,11.97
2018-04-15T10:52:54.210Z,13.03
2018-04-15T10:55:21.795Z,13.20
2018-04-15T10:57:49.380Z,11.10
2018-04-15T11:00:17.002Z,11.90
2018-04-15T11:02:44.614Z,12.77
2018-04-15T11:05:12.207Z,13.20
2018-04-15T11:07:39.824Z,13.17
2018-04-15T11:10:07.416Z,12.87
2018-04-15T11:12:35.783Z,11.60
2018-04-15T11:15:03.399Z,11.20
2018-04-15T11:17:31.005Z,11.83
2018-04-15T11:19:59.393Z,12.97
2018-04-15T11:22:27.783Z,10.80
2018-04-15T11:24:56.133Z,10.67
2018-04-15T11:27:23.731Z,14.23
2018-04-15T11:29:51.349Z,12.00
2018-04-15T11:32:18.946Z,13.50
2018-04-15T11:34:47.300Z,11.47
2018-04-15T11:37:14.916Z,14.23
2018-04-15T11:39:42.504Z,13.10
2018-04-15T11:42:10.092Z,13.07
2018-04-15T11:44:38.488Z,13.57
2018-04-15T11:47:06.124Z,14.03
2018-04-15T11:49:33.749Z,14.03
2018-04-15T11:52:01.397Z,13.70
2018-04-15T11:54:28.987Z,13.47
2018-04-15T11:56:56.570Z,14.80
2018-04-15T11:59:24.191Z,13.90
2018-04-15T12:01:51.772Z,13.77
2018-04-15T12:04:19.378Z,12.70
2018-04-15T12:06:46.986Z,13.90
2018-04-15T12:09:14.576Z,12.87
2018-04-15T12:11:42.940Z,13.80
2018-04-15T12:14:10.564Z,14.00
2018-04-15T12:16:38.147Z,15.27
2018-04-15T12:19:05.749Z,13.90
2018-04-15T12:21:34.127Z,15.60
2018-04-15T12:24:02.482Z,15.07
2018-04-15T12:26:30.075Z,15.00
2018-04-15T12:28:58.467Z,14.00
2018-04-15T12:31:26.059Z,14.33
2018-04-15T12:33:54.430Z,13.97
2018-04-15T12:36:34.605Z,12.27
2018-04-15T12:39:02.195Z,11.63
2018-04-15T12:41:35.697Z,11.90
2018-04-15T12:44:04.050Z,14.23
2018-04-15T12:46:32.623Z,13.30
2018-04-15T12:49:00.243Z,11.23
2018-04-15T12:51:27.836Z,11.13
2018-04-15T12:53:55.421Z,11.70
2018-04-15T12:56:27.411Z,12.40
2018-04-15T12:58:59.538Z,12.23
2018-04-15T13:01:27.145Z,10.33
2018-04-15T13:03:55.498Z,11.53
2018-04-15T13:06:23.096Z,11.03
2018-04-15T13:08:50.730Z,11.80
2018-04-15T13:11:19.093Z,10.63
2018-04-15T13:13:47.965Z,10.63
2018-04-15T13:16:15.729Z,12.17
2018-04-15T13:18:43.394Z,12.20
2018-04-15T13:21:14.811Z,12.97
2018-04-15T13:23:42.507Z,14.00
2018-04-15T13:26:11.294Z,11.80
2018-04-15T13:28:39.009Z,12.93
2018-04-15T13:31:07.548Z,13.57
2018-04-15T13:33:35.494Z,13.67
2018-04-15T13:36:03.136Z,11.20
2018-04-15T13:38:30.724Z,10.70
2018-04-15T13:40:58.379Z,9.13
2018-04-15T13:43:26.556Z,9.67
2018-04-15T13:45:54.264Z,11.20
2018-04-15T13:48:22.721Z,9.77
2018-04-15T13:50:50.561Z,10.30
2018-04-15T13:53:18.207Z,10.77
2018-04-15T13:55:46.619Z,12.37
2018-04-15T13:58:14.231Z,9.57
2018-04-15T14:00:42.578Z,8.80
2018-04-15T14:03:10.172Z,10.90
2018-04-15T14:05:37.824Z,9.20
2018-04-15T14:08:05.441Z,10.03
2018-04-15T14:10:33.036Z,8.93
2018-04-15T14:13:01.456Z,9.17
2018-04-15T14:15:29.047Z,9.17
2018-04-15T14:17:56.691Z,7.87
2018-04-15T14:20:24.301Z,7.93
2018-04-15T14:22:52.749Z,10.10
2018-04-15T14:25:20.349Z,9.30
2018-04-15T14:27:47.968Z,10.43
2018-04-15T14:30:15.552Z,10.03
2018-04-15T14:32:43.144Z,9.70
2018-04-15T14:35:10.776Z,9.37
2018-04-15T14:37:38.359Z,7.47
2018-04-15T14:40:06.712Z,9.00
2018-04-15T14:42:34.322Z,9.07
2018-04-15T14:45:01.919Z,9.23
2018-04-15T14:47:29.504Z,9.43
2018-04-15T14:49:57.179Z,9.30
2018-04-15T14:52:24.756Z,8.53
2018-04-15T14:54:52.444Z,9.83
2018-04-15T14:57:20.066Z,8.17
2018-04-15T14:59:48.418Z,8.33
2018-04-15T15:02:16.011Z,9.00
2018-04-15T15:04:43.662Z,9.30
2018-04-15T15:07:12.004Z,7.60
2018-04-15T15:09:39.602Z,8.60
2018-04-15T15:12:08.027Z,9.30
2018-04-15T15:14:35.604Z,8.73
2018-04-15T15:17:03.474Z,7.27
2018-04-15T15:19:31.165Z,7.37
2018-04-15T15:21:58.730Z,8.10
2018-04-15T15:24:26.341Z,8.03
2018-04-15T15:26:54.083Z,7.33
2018-04-15T15:29:21.709Z,7.73
2018-04-15T15:31:50.437Z,6.93
2018-04-15T15:34:18.047Z,8.50
2018-04-15T15:36:45.632Z,8.57
2018-04-15T15:39:13.988Z,6.90
2018-04-15T15:41:42.382Z,7.60
2018-04-15T15:44:10.735Z,6.60
2018-04-15T15:46:38.336Z,7.20
2018-04-15T15:49:05.948Z,6.00
2018-04-15T15:51:33.538Z,8.97
2018-04-15T15:54:01.901Z,6.03
2018-04-15T15:56:29.507Z,8.30
2018-04-15T15:58:57.096Z,5.20
2018-04-15T16:01:25.031Z,6.33
2018-04-15T16:03:52.641Z,7.17
2018-04-15T16:06:20.245Z,6.40
2018-04-15T16:08:48.596Z,6.77
2018-04-15T16:11:16.204Z,6.07
2018-04-15T16:13:43.795Z,6.67
2018-04-15T16:16:11.380Z,6.23
2018-04-15T16:18:38.988Z,6.00
2018-04-15T16:21:06.573Z,8.93
2018-04-15T16:23:34.181Z,6.47
2018-04-15T16:26:03.363Z,7.03
2018-04-15T16:28:30.978Z,6.97
2018-04-15T16:30:58.581Z,6.80
2018-04-15T16:33:26.197Z,6.67
2018-04-15T16:35:53.800Z,7.03
2018-04-15T16:38:21.391Z,7.93
2018-04-15T16:40:49.021Z,6.27
2018-04-15T16:43:21.074Z,5.73
2018-04-15T16:45:48.680Z,8.60
2018-04-15T16:48:20.615Z,6.83
2018-04-15T16:50:48.296Z,17.77
2018-04-15T16:53:15.854Z,9.93
2018-04-15T16:55:44.196Z,8.10
2018-04-15T16:58:11.815Z,6.77
2018-04-15T17:00:45.220Z,8.33
2018-04-15T17:03:12.827Z,6.70
2018-04-15T17:05:40.411Z,7.40
2018-04-15T17:08:08.764Z,6.67
2018-04-15T17:10:36.394Z,5.70
2018-04-15T17:13:03.977Z,6.20
2018-04-15T17:15:32.319Z,5.50
2018-04-15T17:17:59.929Z,5.40
2018-04-15T17:20:27.513Z,6.43
2018-04-15T17:22:55.113Z,6.83
2018-04-15T17:25:22.720Z,5.60
2018-04-15T17:27:51.071Z,5.30
2018-04-15T17:30:18.661Z,5.47
2018-04-15T17:32:47.044Z,5.60
2018-04-15T17:35:15.401Z,5.50
2018-04-15T17:37:42.988Z,9.10
2018-04-15T17:40:11.389Z,9.57
2018-04-15T17:42:38.978Z,6.80
2018-04-15T17:45:06.561Z,5.90
2018-04-15T17:47:34.179Z,5.57
2018-04-15T17:50:01.767Z,6.40
2018-04-15T17:52:29.359Z,8.30
2018-04-15T17:54:57.003Z,9.37
2018-04-15T17:57:24.592Z,5.90
2018-04-15T17:59:52.205Z,6.30
2018-04-15T18:02:19.811Z,7.63
2018-04-15T18:04:48.161Z,6.30
2018-04-15T18:07:15.747Z,8.20
2018-04-15T18:09:44.136Z,7.30
2018-04-15T18:12:12.480Z,7.30
2018-04-15T18:14:40.118Z,8.60
2018-04-15T18:17:07.724Z,8.93
2018-04-15T18:19:36.077Z,8.70
2018-04-15T18:22:03.662Z,9.30
2018-04-15T18:24:32.102Z,10.93
2018-04-15T18:26:59.700Z,9.03
2018-04-15T18:29:27.303Z,8.43
2018-04-15T18:31:54.916Z,8.93
2018-04-15T18:34:22.504Z,8.93
2018-04-15T18:36:50.906Z,8.87
2018-04-15T18:39:19.269Z,9.40
2018-04-15T18:41:46.905Z,9.23
2018-04-15T18:44:15.264Z,9.53
2018-04-15T18:46:42.880Z,10.10
2018-04-15T18:49:10.504Z,9.77
2018-04-15T18:51:38.089Z,9.97
2018-04-15T18:54:05.736Z,9.90
2018-04-15T18:56:34.093Z,10.83
2018-04-15T18:59:01.686Z,9.90
2018-04-15T19:01:30.104Z,9.53
2018-04-15T19:03:57.684Z,10.17
2018-04-15T19:06:25.269Z,9.30
2018-04-15T19:08:53.698Z,17.33
2018-04-15T19:11:21.285Z,9.93
2018-04-15T19:13:48.871Z,9.97
2018-04-15T19:16:17.262Z,10.50
2018-04-15T19:18:45.617Z,10.43
2018-04-15T19:21:13.203Z,10.83
2018-04-15T19:23:41.584Z,10.83
2018-04-15T19:26:09.945Z,10.90
2018-04-15T19:28:38.312Z,10.33
2018-04-15T19:31:05.967Z,15.20
2018-04-15T19:33:33.564Z,9.90
2018-04-15T19:36:01.978Z,10.27
2018-04-15T19:38:29.608Z,9.17
2018-04-15T19:40:57.956Z,9.97
2018-04-15T19:43:25.556Z,12.80
2018-04-15T19:45:53.173Z,8.30
2018-04-15T19:48:20.770Z,9.50
2018-04-15T19:50:48.355Z,9.63
2018-04-15T19:53:15.986Z,10.70
2018-04-15T19:55:44.339Z,12.60
2018-04-15T19:58:11.930Z,10.63
2018-04-15T20:00:40.344Z,10.60
2018-04-15T20:03:07.992Z,11.00
2018-04-15T20:05:35.582Z,10.60
2018-04-15T20:08:03.191Z,10.50
2018-04-15T20:10:31.554Z,10.63
2018-04-15T20:12:59.954Z,9.80
2018-04-15T20:15:28.336Z,12.03
2018-04-15T20:17:55.926Z,10.10
2018-04-15T20:20:23.557Z,9.60
2018-04-15T20:22:51.188Z,10.80
2018-04-15T20:25:18.792Z,11.87
2018-04-15T20:27:46.388Z,10.40
2018-04-15T20:30:14.012Z,10.73
2018-04-15T20:32:41.595Z,9.50
2018-04-15T20:35:09.197Z,12.10
2018-04-15T20:37:36.807Z,9.50
2018-04-15T20:40:04.398Z,10.70
2018-04-15T20:42:31.984Z,9.70
2018-04-15T20:45:00.367Z,8.90
2018-04-15T20:47:28.767Z,9.63
2018-04-15T20:49:56.359Z,9.73
2018-04-15T20:52:23.971Z,8.83
2018-04-15T20:54:52.316Z,10.33
2018-04-15T20:57:19.901Z,8.73
2018-04-15T20:59:48.277Z,8.70
2018-04-15T21:02:16.657Z,8.93
2018-04-15T21:04:44.243Z,8.00
2018-04-15T21:07:11.853Z,8.77
2018-04-15T21:09:39.439Z,10.10
2018-04-15T21:12:07.070Z,13.10
2018-04-15T21:14:34.667Z,9.33
2018-04-15T21:17:03.023Z,8.50
2018-04-15T21:19:30.624Z,11.87
2018-04-15T21:21:58.238Z,10.00
2018-04-15T21:24:25.816Z,9.63
2018-04-15T21:26:53.464Z,9.27
2018-04-15T21:29:21.068Z,9.20
2018-04-15T21:31:48.658Z,12.27
2018-04-15T21:34:16.242Z,10.20
2018-04-15T21:36:43.867Z,9.70
2018-04-15T21:39:11.456Z,9.60
2018-04-15T21:41:39.063Z,13.50
2018-04-15T21:44:07.440Z,7.80
2018-04-15T21:46:35.783Z,8.67
2018-04-15T21:49:03.367Z,8.70
2018-04-15T21:51:31.801Z,8.43
2018-04-15T21:53:59.391Z,9.60
2018-04-15T21:56:26.984Z,10.07
2018-04-15T21:58:54.603Z,11.83
2018-04-15T22:01:22.185Z,8.40
2018-04-15T22:03:49.777Z,8.83
2018-04-15T22:06:18.341Z,8.67
2018-04-15T22:08:46.687Z,9.77
2018-04-15T22:11:14.269Z,9.47
2018-04-15T22:13:42.652Z,9.93
2018-04-15T22:16:11.010Z,8.60
2018-04-15T22:18:38.643Z,8.50
2018-04-15T22:21:06.262Z,9.93
2018-04-15T22:23:34.619Z,8.53
2018-04-15T22:26:02.250Z,12.77
2018-04-15T22:28:29.863Z,12.57
2018-04-15T22:30:58.215Z,10.30
2018-04-15T22:33:25.846Z,8.00
2018-04-15T22:35:53.456Z,8.47
2018-04-15T22:38:21.811Z,8.33
2018-04-15T22:40:49.408Z,8.47
2018-04-15T22:43:17.060Z,7.43
2018-04-15T22:45:45.428Z,8.20
2018-04-15T22:48:13.016Z,7.73
2018-04-15T22:50:40.659Z,8.07
2018-04-15T22:53:09.016Z,7.63
2018-04-15T22:55:36.603Z,7.23
2018-04-15T22:58:04.988Z,7.37
2018-04-15T23:00:33.337Z,8.07
2018-04-15T23:03:00.919Z,7.60
2018-04-15T23:05:29.305Z,8.30
2018-04-15T23:07:57.658Z,8.17
2018-04-15T23:10:25.240Z,7.63
2018-04-15T23:12:53.625Z,7.77
2018-04-15T23:15:21.968Z,7.77
2018-04-15T23:17:49.551Z,9.43
2018-04-15T23:20:17.936Z,8.70
2018-04-15T23:22:46.284Z,10.50
2018-04-15T23:25:13.861Z,8.70
2018-04-15T23:27:41.470Z,7.70
2018-04-15T23:30:09.060Z,8.23
2018-04-15T23:32:36.648Z,8.67
2018-04-15T23:35:04.268Z,8.10
2018-04-15T23:37:31.860Z,7.97
2018-04-15T23:39:59.449Z,8.63
2018-04-15T23:42:27.828Z,8.93
2018-04-15T23:44:56.180Z,7.57
2018-04-15T23:47:23.763Z,7.93
2018-04-15T23:49:52.142Z,8.50
2018-04-15T23:52:20.492Z,7.17
2018-04-15T23:54:48.082Z,8.70
2018-04-15T23:57:16.479Z,7.10
2018-04-15T23:59:44.060Z,8.53
